Aviation Digital Data Service (ADDS)

Output produced by METARs form (0237 UTC 22 February 2019)
found at http://www.aviationweather.gov/metar/data/
 
Forecast for: GMME (RABAT/SALE (RMAF, MA)
Text: TAF GMME 212300Z 2200/2306 34008KT 8000 NSC
Forecast period: 0000 UTC 22 February 2019 to 0600 UTC 23 February 2019
Forecast type: FROM: standard forecast or significant change
Winds: from the NNW (340 degrees) at 9 MPH (8 knots; 4.1 m/s)
Visibility: 5 miles (8 km)
Ceiling: unknown
Clouds: missing
Weather: no significant weather forecast for this period
Text: PROB30
Forecast period: 0200 to 0800 UTC 22 February 2019
Forecast type: TEMPORARY: The following changes expected for less than half the time period
Winds: variable direction winds at 2 MPH (2 knots; 1.0 m/s)
Visibility: 1.86 miles (2.99 km)
Ceiling: at least 12,000 feet AGL
Clouds: scattered clouds at 800 feet AGL
Weather: BR  (mist)